Terminal Aerodrome Forecast
Issued by NWS Jackson, MS

Home | Current Version | Previous Version | Text Only | Print | Product List | Glossary On
Versions: 1 2 3 4 5 6 7 8 9 10 11 12 13 14 15 16 17 18 19 20 21
000
FTUS44 KJAN 230500
TAFHBG
TAF
KHBG 230535Z 2306/2406 00000KT 4SM BR FEW008
     FM230730 00000KT 2SM BR BKN003
     FM230930 00000KT 1/4SM FG OVC001
     FM231300 00000KT 1/2SM FG OVC001
     FM231400 03003KT 4SM BR BKN003
     FM231500 03006KT P6SM FEW025
     FM240000 VRB03KT P6SM SKC=

USA.gov is the U.S. government's official web portal to all federal, state and local government web resources and services.